sensor_id;sensor_type;location;lat;lon;timestamp;pressure;altitude;pressure_sealevel;temperature;humidity
16580;BME280;8402;51.466;6.806;2023-04-06T00:01:10;101559.97;;;5.86;58.76
16580;BME280;8402;51.466;6.806;2023-04-06T00:03:40;101555.34;;;5.82;58.50
16580;BME280;8402;51.466;6.806;2023-04-06T00:06:10;101555.84;;;5.78;58.53
16580;BME280;8402;51.466;6.806;2023-04-06T00:08:43;101560.16;;;5.74;58.70
16580;BME280;8402;51.466;6.806;2023-04-06T00:11:13;101555.28;;;5.71;58.82
16580;BME280;8402;51.466;6.806;2023-04-06T00:13:44;101555.81;;;5.68;58.86
16580;BME280;8402;51.466;6.806;2023-04-06T00:16:17;101546.63;;;5.64;59.15
16580;BME280;8402;51.466;6.806;2023-04-06T00:18:50;101545.28;;;5.62;59.18
16580;BME280;8402;51.466;6.806;2023-04-06T00:21:20;101552.28;;;5.58;59.21
16580;BME280;8402;51.466;6.806;2023-04-06T00:23:50;101550.91;;;5.55;59.34
16580;BME280;8402;51.466;6.806;2023-04-06T00:26:20;101549.81;;;5.51;59.53
16580;BME280;8402;51.466;6.806;2023-04-06T00:28:50;101543.31;;;5.47;59.44
16580;BME280;8402;51.466;6.806;2023-04-06T00:31:23;101547.59;;;5.43;60.01
16580;BME280;8402;51.466;6.806;2023-04-06T00:33:53;101553.50;;;5.40;59.66
16580;BME280;8402;51.466;6.806;2023-04-06T00:36:23;101539.50;;;5.38;60.03
16580;BME280;8402;51.466;6.806;2023-04-06T00:38:56;101543.25;;;5.37;60.56
16580;BME280;8402;51.466;6.806;2023-04-06T00:41:26;101535.72;;;5.39;60.32
16580;BME280;8402;51.466;6.806;2023-04-06T00:43:56;101539.50;;;5.38;60.35
16580;BME280;8402;51.466;6.806;2023-04-06T00:46:29;101533.31;;;5.37;60.40
16580;BME280;8402;51.466;6.806;2023-04-06T00:49:00;101533.53;;;5.36;60.39
16580;BME280;8402;51.466;6.806;2023-04-06T00:51:30;101528.69;;;5.33;60.39
16580;BME280;8402;51.466;6.806;2023-04-06T00:54:00;101531.91;;;5.30;60.36
16580;BME280;8402;51.466;6.806;2023-04-06T00:56:30;101522.47;;;5.27;60.47
16580;BME280;8402;51.466;6.806;2023-04-06T00:59:00;101520.28;;;5.24;60.40
16580;BME280;8402;51.466;6.806;2023-04-06T01:01:33;101521.06;;;5.19;60.96
16580;BME280;8402;51.466;6.806;2023-04-06T01:04:03;101515.41;;;5.16;60.91
16580;BME280;8402;51.466;6.806;2023-04-06T01:06:33;101515.09;;;5.12;61.01
16580;BME280;8402;51.466;6.806;2023-04-06T01:09:03;101514.00;;;5.08;61.02
16580;BME280;8402;51.466;6.806;2023-04-06T01:11:35;101503.75;;;5.05;61.20
16580;BME280;8402;51.466;6.806;2023-04-06T01:14:05;101502.66;;;5.01;61.26
16580;BME280;8402;51.466;6.806;2023-04-06T01:16:38;101504.78;;;4.99;61.41
16580;BME280;8402;51.466;6.806;2023-04-06T01:19:09;101504.50;;;4.95;61.55
16580;BME280;8402;51.466;6.806;2023-04-06T01:21:41;101510.38;;;4.92;61.56
16580;BME280;8402;51.466;6.806;2023-04-06T01:24:14;101500.13;;;4.89;61.83
16580;BME280;8402;51.466;6.806;2023-04-06T01:26:44;101493.63;;;4.85;61.87
16580;BME280;8402;51.466;6.806;2023-04-06T01:29:14;101494.97;;;4.83;61.80
16580;BME280;8402;51.466;6.806;2023-04-06T01:31:45;101497.13;;;4.81;61.66
16580;BME280;8402;51.466;6.806;2023-04-06T01:34:15;101495.50;;;4.80;61.73
16580;BME280;8402;51.466;6.806;2023-04-06T01:36:45;101496.56;;;4.79;61.96
16580;BME280;8402;51.466;6.806;2023-04-06T01:39:18;101493.31;;;4.77;62.41
16580;BME280;8402;51.466;6.806;2023-04-06T01:41:48;101491.16;;;4.74;62.12
16580;BME280;8402;51.466;6.806;2023-04-06T01:44:18;101485.47;;;4.70;62.33
16580;BME280;8402;51.466;6.806;2023-04-06T01:46:48;101483.28;;;4.67;62.49
16580;BME280;8402;51.466;6.806;2023-04-06T01:49:18;101489.47;;;4.67;62.59
16580;BME280;8402;51.466;6.806;2023-04-06T01:51:48;101486.25;;;4.70;62.74
16580;BME280;8402;51.466;6.806;2023-04-06T01:54:22;101476.31;;;4.71;62.84
16580;BME280;8402;51.466;6.806;2023-04-06T01:56:52;101478.78;;;4.73;62.85
16580;BME280;8402;51.466;6.806;2023-04-06T01:59:22;101482.53;;;4.72;62.79
16580;BME280;8402;51.466;6.806;2023-04-06T02:01:52;101479.53;;;4.68;62.82
16580;BME280;8402;51.466;6.806;2023-04-06T02:04:25;101484.63;;;4.64;62.85
16580;BME280;8402;51.466;6.806;2023-04-06T02:06:55;101487.00;;;4.61;62.92
16580;BME280;8402;51.466;6.806;2023-04-06T02:09:28;101478.38;;;4.59;63.24
16580;BME280;8402;51.466;6.806;2023-04-06T02:11:58;101470.53;;;4.52;63.15
16580;BME280;8402;51.466;6.806;2023-04-06T02:14:28;101479.09;;;4.49;62.92
16580;BME280;8402;51.466;6.806;2023-04-06T02:16:58;101476.94;;;4.46;63.27
16580;BME280;8402;51.466;6.806;2023-04-06T02:19:28;101472.06;;;4.43;63.13
16580;BME280;8402;51.466;6.806;2023-04-06T02:21:58;101473.63;;;4.39;63.39
16580;BME280;8402;51.466;6.806;2023-04-06T02:24:31;101475.78;;;4.37;63.52
16580;BME280;8402;51.466;6.806;2023-04-06T02:27:01;101469.28;;;4.33;63.41
16580;BME280;8402;51.466;6.806;2023-04-06T02:29:32;101468.72;;;4.31;63.43
16580;BME280;8402;51.466;6.806;2023-04-06T02:32:02;101468.97;;;4.29;63.75
16580;BME280;8402;51.466;6.806;2023-04-06T02:34:32;101469.47;;;4.26;63.67
16580;BME280;8402;51.466;6.806;2023-04-06T02:37:05;101458.44;;;4.23;64.03
16580;BME280;8402;51.466;6.806;2023-04-06T02:39:38;101464.31;;;4.20;64.22
16580;BME280;8402;51.466;6.806;2023-04-06T02:42:08;101460.81;;;4.19;63.80
16580;BME280;8402;51.466;6.806;2023-04-06T02:44:38;101455.69;;;4.18;64.11
16580;BME280;8402;51.466;6.806;2023-04-06T02:47:08;101468.00;;;4.13;64.40
16580;BME280;8402;51.466;6.806;2023-04-06T02:49:38;101457.50;;;4.12;64.03
16580;BME280;8402;51.466;6.806;2023-04-06T02:52:08;101462.34;;;4.10;64.15
16580;BME280;8402;51.466;6.806;2023-04-06T02:54:41;101457.22;;;4.08;64.62
16580;BME280;8402;51.466;6.806;2023-04-06T02:57:11;101458.28;;;4.07;64.38
16580;BME280;8402;51.466;6.806;2023-04-06T02:59:41;101450.22;;;4.07;64.59
16580;BME280;8402;51.466;6.806;2023-04-06T03:02:11;101454.53;;;4.08;64.69
16580;BME280;8402;51.466;6.806;2023-04-06T03:04:42;101448.91;;;4.10;64.79
16580;BME280;8402;51.466;6.806;2023-04-06T03:07:12;101449.72;;;4.10;64.91
16580;BME280;8402;51.466;6.806;2023-04-06T03:09:44;101447.03;;;4.10;65.09
16580;BME280;8402;51.466;6.806;2023-04-06T03:12:14;101450.22;;;4.07;64.88
16580;BME280;8402;51.466;6.806;2023-04-06T03:14:44;101449.41;;;4.07;64.72
16580;BME280;8402;51.466;6.806;2023-04-06T03:17:14;101441.59;;;4.05;64.81
16580;BME280;8402;51.466;6.806;2023-04-06T03:19:44;101446.41;;;4.03;64.83
16580;BME280;8402;51.466;6.806;2023-04-06T03:22:14;101445.88;;;4.01;64.79
16580;BME280;8402;51.466;6.806;2023-04-06T03:24:47;101449.03;;;3.98;64.86
16580;BME280;8402;51.466;6.806;2023-04-06T03:27:17;101446.88;;;3.95;64.82
16580;BME280;8402;51.466;6.806;2023-04-06T03:29:47;101454.38;;;3.93;64.74
16580;BME280;8402;51.466;6.806;2023-04-06T03:32:17;101453.25;;;3.89;64.97
16580;BME280;8402;51.466;6.806;2023-04-06T03:34:47;101450.00;;;3.87;65.16
16580;BME280;8402;51.466;6.806;2023-04-06T03:37:18;101454.25;;;3.83;65.61
16580;BME280;8402;51.466;6.806;2023-04-06T03:39:52;101459.31;;;3.79;65.69
16580;BME280;8402;51.466;6.806;2023-04-06T03:42:21;101454.19;;;3.78;65.53
16580;BME280;8402;51.466;6.806;2023-04-06T03:44:51;101453.06;;;3.74;65.42
16580;BME280;8402;51.466;6.806;2023-04-06T03:47:22;101453.06;;;3.74;65.65
16580;BME280;8402;51.466;6.806;2023-04-06T03:49:52;101457.91;;;3.72;65.73
16580;BME280;8402;51.466;6.806;2023-04-06T03:52:22;101443.88;;;3.70;66.09
16580;BME280;8402;51.466;6.806;2023-04-06T03:54:55;101446.03;;;3.68;66.18
16580;BME280;8402;51.466;6.806;2023-04-06T03:57:25;101450.25;;;3.64;65.88
16580;BME280;8402;51.466;6.806;2023-04-06T03:59:55;101439.78;;;3.62;66.20
16580;BME280;8402;51.466;6.806;2023-04-06T04:02:25;101450.78;;;3.61;65.98
16580;BME280;8402;51.466;6.806;2023-04-06T04:04:56;101449.16;;;3.59;66.14
16580;BME280;8402;51.466;6.806;2023-04-06T04:07:26;101442.66;;;3.55;66.21
16580;BME280;8402;51.466;6.806;2023-04-06T04:09:59;101440.56;;;3.57;66.89
16580;BME280;8402;51.466;6.806;2023-04-06T04:12:29;101436.81;;;3.58;66.78
16580;BME280;8402;51.466;6.806;2023-04-06T04:14:59;101444.59;;;3.60;66.69
16580;BME280;8402;51.466;6.806;2023-04-06T04:17:30;101442.72;;;3.61;66.68
16580;BME280;8402;51.466;6.806;2023-04-06T04:20:00;101444.59;;;3.60;66.67
16580;BME280;8402;51.466;6.806;2023-04-06T04:22:29;101448.34;;;3.59;66.60
16580;BME280;8402;51.466;6.806;2023-04-06T04:25:03;101445.34;;;3.55;66.78
16580;BME280;8402;51.466;6.806;2023-04-06T04:27:32;101448.53;;;3.52;66.45
16580;BME280;8402;51.466;6.806;2023-04-06T04:30:03;101443.63;;;3.49;66.69
16580;BME280;8402;51.466;6.806;2023-04-06T04:32:33;101447.91;;;3.45;66.97
16580;BME280;8402;51.466;6.806;2023-04-06T04:35:04;101448.97;;;3.44;66.94
16580;BME280;8402;51.466;6.806;2023-04-06T04:37:34;101450.50;;;3.40;66.82
16580;BME280;8402;51.466;6.806;2023-04-06T04:40:09;101452.63;;;3.38;67.22
16580;BME280;8402;51.466;6.806;2023-04-06T04:42:42;101448.56;;;3.36;67.01
16580;BME280;8402;51.466;6.806;2023-04-06T04:45:12;101455.25;;;3.33;66.94
16580;BME280;8402;51.466;6.806;2023-04-06T04:47:42;101445.03;;;3.30;67.16
16580;BME280;8402;51.466;6.806;2023-04-06T04:50:12;101447.94;;;3.28;67.13
16580;BME280;8402;51.466;6.806;2023-04-06T04:52:53;101443.88;;;3.26;67.31
16580;BME280;8402;51.466;6.806;2023-04-06T04:55:27;101446.25;;;3.22;67.49
16580;BME280;8402;51.466;6.806;2023-04-06T04:57:57;101448.13;;;3.22;67.30
16580;BME280;8402;51.466;6.806;2023-04-06T05:00:29;101433.59;;;3.18;67.35
16580;BME280;8402;51.466;6.806;2023-04-06T05:02:59;101433.84;;;3.16;67.45
16580;BME280;8402;51.466;6.806;2023-04-06T05:05:29;101442.94;;;3.15;67.33
16580;BME280;8402;51.466;6.806;2023-04-06T05:07:59;101438.88;;;3.13;67.51
16580;BME280;8402;51.466;6.806;2023-04-06T05:10:32;101441.56;;;3.13;67.85
16580;BME280;8402;51.466;6.806;2023-04-06T05:13:02;101441.00;;;3.11;67.63
16580;BME280;8402;51.466;6.806;2023-04-06T05:15:32;101442.06;;;3.10;67.75
16580;BME280;8402;51.466;6.806;2023-04-06T05:18:05;101446.88;;;3.08;68.02
16580;BME280;8402;51.466;6.806;2023-04-06T05:20:36;101451.72;;;3.11;67.92
16580;BME280;8402;51.466;6.806;2023-04-06T05:23:06;101444.81;;;3.15;68.16
16580;BME280;8402;51.466;6.806;2023-04-06T05:25:39;101447.81;;;3.18;68.35
16580;BME280;8402;51.466;6.806;2023-04-06T05:28:09;101443.59;;;3.22;68.26
16580;BME280;8402;51.466;6.806;2023-04-06T05:30:41;101439.03;;;3.23;68.02
16580;BME280;8402;51.466;6.806;2023-04-06T05:33:11;101445.19;;;3.23;68.01
16580;BME280;8402;51.466;6.806;2023-04-06T05:35:42;101445.47;;;3.22;68.20
16580;BME280;8402;51.466;6.806;2023-04-06T05:38:12;101439.50;;;3.20;68.01
16580;BME280;8402;51.466;6.806;2023-04-06T05:40:45;101444.06;;;3.19;68.67
16580;BME280;8402;51.466;6.806;2023-04-06T05:43:15;101437.06;;;3.18;68.37
16580;BME280;8402;51.466;6.806;2023-04-06T05:45:48;101434.66;;;3.17;68.64
16580;BME280;8402;51.466;6.806;2023-04-06T05:48:18;101440.50;;;3.14;68.84
16580;BME280;8402;51.466;6.806;2023-04-06T05:50:48;101440.50;;;3.14;69.01
16580;BME280;8402;51.466;6.806;2023-04-06T05:53:19;101442.63;;;3.12;68.84
16580;BME280;8402;51.466;6.806;2023-04-06T05:55:51;101451.22;;;3.14;69.21
16580;BME280;8402;51.466;6.806;2023-04-06T05:58:21;101448.31;;;3.15;69.18
16580;BME280;8402;51.466;6.806;2023-04-06T06:00:56;101450.75;;;3.17;69.20
16580;BME280;8402;51.466;6.806;2023-04-06T06:03:27;101443.25;;;3.19;69.42
16580;BME280;8402;51.466;6.806;2023-04-06T06:06:00;101439.84;;;3.23;69.64
16580;BME280;8402;51.466;6.806;2023-04-06T06:08:31;101438.25;;;3.27;69.41
16580;BME280;8402;51.466;6.806;2023-04-06T06:11:07;101438.09;;;3.34;69.99
16580;BME280;8402;51.466;6.806;2023-04-06T06:13:37;101434.41;;;3.40;69.71
16580;BME280;8402;51.466;6.806;2023-04-06T06:16:08;101425.66;;;3.50;70.46
16580;BME280;8402;51.466;6.806;2023-04-06T06:18:38;101427.16;;;3.63;70.02
16580;BME280;8402;51.466;6.806;2023-04-06T06:21:09;101430.59;;;3.80;69.66
16580;BME280;8402;51.466;6.806;2023-04-06T06:23:39;101418.41;;;3.94;69.01
16580;BME280;8402;51.466;6.806;2023-04-06T06:26:12;101423.41;;;4.12;68.96
16580;BME280;8402;51.466;6.806;2023-04-06T06:28:42;101428.44;;;4.31;67.88
16580;BME280;8402;51.466;6.806;2023-04-06T06:31:12;101427.75;;;4.46;68.08
16580;BME280;8402;51.466;6.806;2023-04-06T06:33:43;101430.28;;;4.62;67.66
16580;BME280;8402;51.466;6.806;2023-04-06T06:36:13;101421.28;;;4.79;66.97
16580;BME280;8402;51.466;6.806;2023-04-06T06:38:43;101425.16;;;4.93;66.75
16580;BME280;8402;51.466;6.806;2023-04-06T06:41:16;101433.31;;;5.13;66.94
16580;BME280;8402;51.466;6.806;2023-04-06T06:43:46;101432.13;;;5.36;65.98
16580;BME280;8402;51.466;6.806;2023-04-06T06:46:16;101417.66;;;5.63;65.93
16580;BME280;8402;51.466;6.806;2023-04-06T06:48:46;101426.09;;;5.87;64.56
16580;BME280;8402;51.466;6.806;2023-04-06T06:51:17;101427.25;;;6.06;63.93
16580;BME280;8402;51.466;6.806;2023-04-06T06:53:47;101422.72;;;6.37;64.72
16580;BME280;8402;51.466;6.806;2023-04-06T06:56:20;101419.19;;;6.62;64.17
16580;BME280;8402;51.466;6.806;2023-04-06T06:58:50;101420.78;;;6.83;60.41
16580;BME280;8402;51.466;6.806;2023-04-06T07:01:20;101416.97;;;7.05;61.67
16580;BME280;8402;51.466;6.806;2023-04-06T07:03:50;101416.88;;;7.35;60.87
16580;BME280;8402;51.466;6.806;2023-04-06T07:06:20;101416.78;;;7.56;59.17
16580;BME280;8402;51.466;6.806;2023-04-06T07:08:50;101405.09;;;7.76;60.29
16580;BME280;8402;51.466;6.806;2023-04-06T07:11:23;101405.75;;;8.02;59.92
16580;BME280;8402;51.466;6.806;2023-04-06T07:13:53;101401.28;;;8.21;59.39
16580;BME280;8402;51.466;6.806;2023-04-06T07:16:23;101397.59;;;8.46;58.02
16580;BME280;8402;51.466;6.806;2023-04-06T07:18:53;101397.91;;;8.73;58.30
16580;BME280;8402;51.466;6.806;2023-04-06T07:21:23;101389.25;;;9.00;57.56
16580;BME280;8402;51.466;6.806;2023-04-06T07:23:53;101389.63;;;9.13;55.83
16580;BME280;8402;51.466;6.806;2023-04-06T07:26:28;101390.22;;;9.33;54.19
16580;BME280;8402;51.466;6.806;2023-04-06T07:28:58;101385.59;;;9.58;55.37
16580;BME280;8402;51.466;6.806;2023-04-06T07:31:28;101391.38;;;9.89;55.47
16580;BME280;8402;51.466;6.806;2023-04-06T07:33:59;101389.91;;;10.15;53.58
16580;BME280;8402;51.466;6.806;2023-04-06T07:36:31;101385.41;;;10.43;54.72
16580;BME280;8402;51.466;6.806;2023-04-06T07:39:01;101387.47;;;10.65;53.58
16580;BME280;8402;51.466;6.806;2023-04-06T07:41:34;101386.63;;;10.51;53.79
16580;BME280;8402;51.466;6.806;2023-04-06T07:44:04;101390.63;;;10.40;52.56
16580;BME280;8402;51.466;6.806;2023-04-06T07:46:34;101383.59;;;10.39;54.56
16580;BME280;8402;51.466;6.806;2023-04-06T07:49:04;101379.56;;;10.50;53.78
16580;BME280;8402;51.466;6.806;2023-04-06T07:51:36;101381.09;;;10.56;52.48
16580;BME280;8402;51.466;6.806;2023-04-06T07:54:06;101373.91;;;10.65;52.37
16580;BME280;8402;51.466;6.806;2023-04-06T07:56:39;101379.06;;;10.81;52.56
16580;BME280;8402;51.466;6.806;2023-04-06T07:59:09;101379.88;;;10.95;52.32
16580;BME280;8402;51.466;6.806;2023-04-06T08:01:40;101373.84;;;11.25;53.00
16580;BME280;8402;51.466;6.806;2023-04-06T08:04:10;101376.91;;;11.60;52.79
16580;BME280;8402;51.466;6.806;2023-04-06T08:06:41;101374.97;;;11.88;49.61
16580;BME280;8402;51.466;6.806;2023-04-06T08:09:11;101369.09;;;11.95;49.06
16580;BME280;8402;51.466;6.806;2023-04-06T08:11:43;101369.22;;;12.12;48.46
16580;BME280;8402;51.466;6.806;2023-04-06T08:14:15;101368.94;;;12.36;49.62
16580;BME280;8402;51.466;6.806;2023-04-06T08:16:45;101364.75;;;12.61;48.76
16580;BME280;8402;51.466;6.806;2023-04-06T08:19:15;101364.69;;;12.83;48.12
16580;BME280;8402;51.466;6.806;2023-04-06T08:21:48;101365.28;;;12.72;45.58
16580;BME280;8402;51.466;6.806;2023-04-06T08:24:21;101366.63;;;12.52;45.25
16580;BME280;8402;51.466;6.806;2023-04-06T08:26:54;101366.25;;;12.45;46.22
16580;BME280;8402;51.466;6.806;2023-04-06T08:29:24;101363.13;;;12.60;47.49
16580;BME280;8402;51.466;6.806;2023-04-06T08:31:54;101360.91;;;12.62;45.37
16580;BME280;8402;51.466;6.806;2023-04-06T08:34:24;101362.25;;;12.73;46.80
16580;BME280;8402;51.466;6.806;2023-04-06T08:36:54;101362.97;;;12.87;46.69
16580;BME280;8402;51.466;6.806;2023-04-06T08:39:24;101360.28;;;13.05;46.15
16580;BME280;8402;51.466;6.806;2023-04-06T08:41:57;101351.56;;;13.25;46.38
16580;BME280;8402;51.466;6.806;2023-04-06T08:44:31;101351.91;;;13.32;44.80
16580;BME280;8402;51.466;6.806;2023-04-06T08:47:04;101348.69;;;13.30;44.52
16580;BME280;8402;51.466;6.806;2023-04-06T08:49:37;101345.03;;;13.43;46.09
16580;BME280;8402;51.466;6.806;2023-04-06T08:52:07;101343.94;;;13.62;46.20
16580;BME280;8402;51.466;6.806;2023-04-06T08:54:37;101342.97;;;13.92;46.62
16580;BME280;8402;51.466;6.806;2023-04-06T08:57:10;101348.13;;;14.02;42.84
16580;BME280;8402;51.466;6.806;2023-04-06T08:59:41;101341.69;;;14.16;43.76
16580;BME280;8402;51.466;6.806;2023-04-06T09:02:17;101336.84;;;14.30;44.33
16580;BME280;8402;51.466;6.806;2023-04-06T09:04:48;101333.56;;;14.63;44.58
16580;BME280;8402;51.466;6.806;2023-04-06T09:07:23;101329.94;;;14.88;44.02
16580;BME280;8402;51.466;6.806;2023-04-06T09:09:53;101332.56;;;15.05;43.21
16580;BME280;8402;51.466;6.806;2023-04-06T09:12:30;101342.13;;;15.20;41.86
16580;BME280;8402;51.466;6.806;2023-04-06T09:15:00;101329.81;;;15.35;43.63
16580;BME280;8402;51.466;6.806;2023-04-06T09:17:32;101337.66;;;15.45;43.01
16580;BME280;8402;51.466;6.806;2023-04-06T09:20:04;101336.97;;;15.48;43.16
16580;BME280;8402;51.466;6.806;2023-04-06T09:22:36;101331.22;;;15.41;39.66
16580;BME280;8402;51.466;6.806;2023-04-06T09:25:07;101323.69;;;15.38;41.03
16580;BME280;8402;51.466;6.806;2023-04-06T09:27:41;101331.38;;;15.45;39.80
16580;BME280;8402;51.466;6.806;2023-04-06T09:30:12;101328.25;;;15.55;40.92
16580;BME280;8402;51.466;6.806;2023-04-06T09:32:48;101326.34;;;15.76;40.71
16580;BME280;8402;51.466;6.806;2023-04-06T09:35:19;101319.91;;;15.93;40.72
16580;BME280;8402;51.466;6.806;2023-04-06T09:37:51;101334.88;;;15.95;41.16
16580;BME280;8402;51.466;6.806;2023-04-06T09:40:22;101321.53;;;15.94;40.66
16580;BME280;8402;51.466;6.806;2023-04-06T09:42:54;101324.56;;;15.92;40.68
16580;BME280;8402;51.466;6.806;2023-04-06T09:45:27;101321.53;;;15.94;40.45
16580;BME280;8402;51.466;6.806;2023-04-06T09:47:59;101324.03;;;15.99;40.43
16580;BME280;8402;51.466;6.806;2023-04-06T09:50:30;101318.31;;;15.71;37.56
16580;BME280;8402;51.466;6.806;2023-04-06T09:53:02;101318.06;;;15.64;39.54
16580;BME280;8402;51.466;6.806;2023-04-06T09:55:36;101321.41;;;15.69;39.76
16580;BME280;8402;51.466;6.806;2023-04-06T09:58:13;101313.34;;;15.73;40.84
16580;BME280;8402;51.466;6.806;2023-04-06T10:00:51;101310.97;;;15.84;40.65
16580;BME280;8402;51.466;6.806;2023-04-06T10:03:31;101318.00;;;15.73;39.22
16580;BME280;8402;51.466;6.806;2023-04-06T10:06:09;101311.50;;;15.77;39.13
16580;BME280;8402;51.466;6.806;2023-04-06T10:08:41;101307.34;;;15.92;40.86
16580;BME280;8402;51.466;6.806;2023-04-06T10:11:12;101300.53;;;15.98;40.40
16580;BME280;8402;51.466;6.806;2023-04-06T10:13:47;101311.63;;;16.02;39.32
16580;BME280;8402;51.466;6.806;2023-04-06T10:16:18;101303.00;;;16.12;40.15
16580;BME280;8402;51.466;6.806;2023-04-06T10:18:55;101314.53;;;16.17;39.13
16580;BME280;8402;51.466;6.806;2023-04-06T10:21:27;101305.44;;;16.26;39.10
16580;BME280;8402;51.466;6.806;2023-04-06T10:23:59;101308.66;;;16.40;39.46
16580;BME280;8402;51.466;6.806;2023-04-06T10:26:30;101307.41;;;16.37;38.54
16580;BME280;8402;51.466;6.806;2023-04-06T10:29:05;101307.97;;;16.43;38.17
16580;BME280;8402;51.466;6.806;2023-04-06T10:31:40;101311.19;;;16.57;39.65
16580;BME280;8402;51.466;6.806;2023-04-06T10:34:12;101314.41;;;16.71;39.76
16580;BME280;8402;51.466;6.806;2023-04-06T10:36:42;101307.88;;;16.64;39.61
16580;BME280;8402;51.466;6.806;2023-04-06T10:39:12;101312.66;;;16.55;39.71
16580;BME280;8402;51.466;6.806;2023-04-06T10:41:45;101310.16;;;16.62;40.06
16580;BME280;8402;51.466;6.806;2023-04-06T10:44:23;101298.28;;;16.45;37.90
16580;BME280;8402;51.466;6.806;2023-04-06T10:46:55;101301.38;;;16.56;38.93
16580;BME280;8402;51.466;6.806;2023-04-06T10:49:27;101311.06;;;16.54;39.46
16580;BME280;8402;51.466;6.806;2023-04-06T10:51:57;101295.44;;;16.54;39.65
16580;BME280;8402;51.466;6.806;2023-04-06T10:54:28;101303.38;;;16.35;38.57
16580;BME280;8402;51.466;6.806;2023-04-06T10:56:59;101297.59;;;16.36;39.70
16580;BME280;8402;51.466;6.806;2023-04-06T10:59:32;101299.09;;;16.46;39.48
16580;BME280;8402;51.466;6.806;2023-04-06T11:02:02;101307.66;;;16.57;39.92
16580;BME280;8402;51.466;6.806;2023-04-06T11:04:35;101302.09;;;16.65;40.14
16580;BME280;8402;51.466;6.806;2023-04-06T11:07:05;101307.31;;;16.58;38.56
16580;BME280;8402;51.466;6.806;2023-04-06T11:09:35;101291.31;;;16.48;39.67
16580;BME280;8402;51.466;6.806;2023-04-06T11:12:06;101303.63;;;16.42;39.51
16580;BME280;8402;51.466;6.806;2023-04-06T11:14:38;101293.72;;;16.49;40.38
16580;BME280;8402;51.466;6.806;2023-04-06T11:17:08;101300.34;;;16.61;40.62
16580;BME280;8402;51.466;6.806;2023-04-06T11:19:39;101299.44;;;16.69;40.77
16580;BME280;8402;51.466;6.806;2023-04-06T11:22:09;101306.19;;;16.71;39.31
16580;BME280;8402;51.466;6.806;2023-04-06T11:24:39;101305.28;;;16.67;39.38
16580;BME280;8402;51.466;6.806;2023-04-06T11:27:09;101302.53;;;16.67;40.35
16580;BME280;8402;51.466;6.806;2023-04-06T11:29:42;101300.44;;;16.64;39.89
16580;BME280;8402;51.466;6.806;2023-04-06T11:32:20;101296.03;;;16.60;40.19
16580;BME280;8402;51.466;6.806;2023-04-06T11:34:51;101289.19;;;16.66;40.59
16580;BME280;8402;51.466;6.806;2023-04-06T11:37:21;101294.31;;;16.67;40.93
16580;BME280;8402;51.466;6.806;2023-04-06T11:39:55;101290.25;;;16.73;40.55
16580;BME280;8402;51.466;6.806;2023-04-06T11:42:27;101286.56;;;16.69;40.26
16580;BME280;8402;51.466;6.806;2023-04-06T11:45:00;101292.06;;;16.69;40.70
16580;BME280;8402;51.466;6.806;2023-04-06T11:47:31;101283.63;;;16.74;41.16
16580;BME280;8402;51.466;6.806;2023-04-06T11:50:06;101281.41;;;16.68;40.46
16580;BME280;8402;51.466;6.806;2023-04-06T11:52:37;101290.31;;;16.65;41.02
16580;BME280;8402;51.466;6.806;2023-04-06T11:55:12;101286.06;;;16.55;41.24
16580;BME280;8402;51.466;6.806;2023-04-06T11:57:43;101283.78;;;16.57;41.95
16580;BME280;8402;51.466;6.806;2023-04-06T12:00:17;101285.84;;;16.48;41.90
16580;BME280;8402;51.466;6.806;2023-04-06T12:02:48;101283.69;;;16.54;42.41
16580;BME280;8402;51.466;6.806;2023-04-06T12:05:19;101283.53;;;16.50;42.69
16580;BME280;8402;51.466;6.806;2023-04-06T12:07:50;101285.97;;;16.51;43.37
16580;BME280;8402;51.466;6.806;2023-04-06T12:10:19;101295.44;;;16.54;43.20
16580;BME280;8402;51.466;6.806;2023-04-06T12:12:49;101293.78;;;16.29;41.83
16580;BME280;8402;51.466;6.806;2023-04-06T12:15:22;101287.28;;;16.33;42.24
16580;BME280;8402;51.466;6.806;2023-04-06T12:17:52;101285.59;;;16.41;42.68
16580;BME280;8402;51.466;6.806;2023-04-06T12:20:22;101287.88;;;16.39;42.08
16580;BME280;8402;51.466;6.806;2023-04-06T12:22:53;101279.22;;;16.37;42.00
16580;BME280;8402;51.466;6.806;2023-04-06T12:25:23;101287.41;;;16.24;41.86
16580;BME280;8402;51.466;6.806;2023-04-06T12:27:54;101287.66;;;16.32;42.45
16580;BME280;8402;51.466;6.806;2023-04-06T12:30:27;101285.13;;;16.27;42.10
16580;BME280;8402;51.466;6.806;2023-04-06T12:32:57;101287.50;;;16.28;42.76
16580;BME280;8402;51.466;6.806;2023-04-06T12:35:27;101281.47;;;16.35;42.26
16580;BME280;8402;51.466;6.806;2023-04-06T12:37:57;101284.00;;;16.40;42.74
16580;BME280;8402;51.466;6.806;2023-04-06T12:40:27;101281.25;;;16.40;42.93
16580;BME280;8402;51.466;6.806;2023-04-06T12:42:57;101273.84;;;16.40;42.48
16580;BME280;8402;51.466;6.806;2023-04-06T12:48:00;101279.00;;;16.54;42.75
16580;BME280;8402;51.466;6.806;2023-04-06T12:50:30;101283.13;;;16.60;43.25
16580;BME280;8402;51.466;6.806;2023-04-06T12:53:00;101277.75;;;16.64;42.99
16580;BME280;8402;51.466;6.806;2023-04-06T12:55:30;101275.34;;;16.62;43.18
16580;BME280;8402;51.466;6.806;2023-04-06T12:58:03;101274.69;;;16.65;42.97
16580;BME280;8402;51.466;6.806;2023-04-06T13:00:35;101287.66;;;16.56;42.04
16580;BME280;8402;51.466;6.806;2023-04-06T13:03:05;101269.53;;;16.51;42.93
16580;BME280;8402;51.466;6.806;2023-04-06T13:05:36;101269.75;;;16.59;42.92
16580;BME280;8402;51.466;6.806;2023-04-06T13:08:06;101273.66;;;16.58;43.09
16580;BME280;8402;51.466;6.806;2023-04-06T13:10:36;101279.00;;;16.54;43.38
16580;BME280;8402;51.466;6.806;2023-04-06T13:13:06;101270.66;;;16.38;42.67
16580;BME280;8402;51.466;6.806;2023-04-06T13:15:38;101264.59;;;16.33;42.82
16580;BME280;8402;51.466;6.806;2023-04-06T13:18:09;101266.63;;;16.36;43.54
16580;BME280;8402;51.466;6.806;2023-04-06T13:20:39;101261.84;;;16.33;43.76
16580;BME280;8402;51.466;6.806;2023-04-06T13:23:09;101272.47;;;16.34;44.25
16580;BME280;8402;51.466;6.806;2023-04-06T13:25:39;101265.28;;;16.30;44.33
16580;BME280;8402;51.466;6.806;2023-04-06T13:28:09;101267.34;;;16.33;44.28